Relevés stations proches


LFBH - La Rochelle, Charente Maritime
Mise à jour: 16/08/2018 04:00
Clair
Clair
 Wind from ENE
Vent: ENE 9 km/h
Température: 16°C
Point de rosée: 14°C
Humidité: 88%
Baromètre: 1016 hPa
Ciel: Clair
Visibilité: Supérieure à 10 km
2018/08/16 04:00 LFBH 160400Z AUTO 06005KT CAVOK 16/14 Q1016 NOSIG
LFBC - Cognac, Charente
Mise à jour: 16/08/2018 04:00
Clair
Clair
 Wind from calm
Vent: Force 0 Beaufort - Calme
Température: 15°C
Point de rosée: 14°C
Humidité: 94%
Baromètre: 1015 hPa
Ciel: Clair
Visibilité: Supérieure à 10 km
2018/08/16 04:00 LFBC 160400Z AUTO 00000KT CAVOK 15/14 Q1015
 
LFBU - Angoulème, Charente
Mise à jour: 16/08/2018 04:00
Clair
Clair
 Wind from NE
Vent: NE 9 km/h
Température: 16°C
Point de rosée: 13°C
Humidité: 83%
Baromètre: 1016 hPa
Ciel: Clair
Visibilité: Supérieure à 10 km
2018/08/16 04:00 LFBU 160400Z AUTO 04005KT CAVOK 16/13 Q1016
LFRI - La Roche sur Yon, Vendée
Mise à jour: 16/08/2018 04:00
Brume, Partiellement nuageux
Brume, Partiellement nuageux
 Wind from NE
Vent: NE 6 km/h
Température: 14°C
Point de rosée: 13°C
Humidité: 94%
Baromètre: 1017 hPa
Ciel: Brume
Ciel: Partiellement nuageux
Visibilité: 5 km
2018/08/16 04:00 LFRI 160400Z AUTO 04003KT 5000 BR NSC 14/13 Q1017
 
LFBI - Poitiers, Vienne
Mise à jour: 16/08/2018 04:00
Clair
Clair
 Wind from NNO
Vent: NNO 2 km/h
Température: 14°C
Point de rosée: 12°C
Humidité: 88%
Baromètre: 1017 hPa
Ciel: Clair
Visibilité: Supérieure à 10 km
2018/08/16 04:00 LFBI 160400Z AUTO 34001KT CAVOK 14/12 Q1017 NOSIG
LFRS - Nantes, Loire Atlantique
Mise à jour: 16/08/2018 04:00

 Wind from calm
Vent: Force 0 Beaufort - Calme
Température: 14°C
Point de rosée: 14°C
Humidité: 100%
Baromètre: 1016 hPa
Visibilité: 10 km
2018/08/16 04:00 LFRS 160400Z AUTO 00000KT 9999 VV/// 14/14 Q1016 TEMPO 0500 FG
 
LFBD - Bordeaux, Gironde
Mise à jour: 16/08/2018 04:00
Clair
Clair
 Wind from N
Vent: N 6 km/h
Température: 18°C
Point de rosée: 16°C
Humidité: 88%
Baromètre: 1015 hPa
Ciel: Clair
Visibilité: Supérieure à 10 km
2018/08/16 04:00 LFBD 160400Z AUTO 01003KT CAVOK 18/16 Q1015 NOSIG
LFBL - Limoges, Haute Vienne
Mise à jour: 16/08/2018 04:00
Clair
Clair
 Wind from NE
Vent: NE 11 km/h
Température: 17°C
Point de rosée: 12°C
Humidité: 73%
Baromètre: 1017 hPa
Ciel: Clair
Visibilité: Supérieure à 10 km
2018/08/16 04:00 LFBL 160400Z AUTO 05006KT CAVOK 17/12 Q1017 NOSIG